createdAt,value
2019-05-25T00:01:46.812Z,9.40
2019-05-25T00:04:21.377Z,9.40
2019-05-25T00:06:53.654Z,9.30
2019-05-25T00:09:32.111Z,9.30
2019-05-25T00:12:04.798Z,9.20
2019-05-25T00:14:38.624Z,9.10
2019-05-25T00:17:10.752Z,9.10
2019-05-25T00:19:45.735Z,9.10
2019-05-25T00:22:19.198Z,9.00
2019-05-25T00:24:52.291Z,8.90
2019-05-25T00:27:44.862Z,8.90
2019-05-25T00:30:20.003Z,8.80
2019-05-25T00:32:54.628Z,8.80
2019-05-25T00:35:28.619Z,8.70
2019-05-25T00:38:01.726Z,8.70
2019-05-25T00:40:35.042Z,8.60
2019-05-25T00:43:07.364Z,8.70
2019-05-25T00:45:42.783Z,8.70
2019-05-25T00:48:16.011Z,8.80
2019-05-25T00:50:50.739Z,8.80
2019-05-25T00:53:25.031Z,8.80
2019-05-25T00:55:58.247Z,8.80
2019-05-25T00:58:32.664Z,8.80
2019-05-25T01:01:06.464Z,8.80
2019-05-25T01:03:41.210Z,8.80
2019-05-25T01:06:13.531Z,8.80
2019-05-25T01:08:47.335Z,8.90
2019-05-25T01:11:21.665Z,8.90
2019-05-25T01:13:56.206Z,8.90
2019-05-25T01:16:29.567Z,8.90
2019-05-25T01:19:01.924Z,9.00
2019-05-25T01:21:33.771Z,9.00
2019-05-25T01:24:06.831Z,9.10
2019-05-25T01:26:39.970Z,9.00
2019-05-25T01:29:09.657Z,9.10
2019-05-25T01:31:41.935Z,9.10
2019-05-25T01:34:18.623Z,9.20
2019-05-25T01:36:51.454Z,9.20
2019-05-25T01:39:24.735Z,9.30
2019-05-25T01:41:58.949Z,9.30
2019-05-25T01:44:33.307Z,9.30
2019-05-25T01:47:06.469Z,9.40
2019-05-25T01:49:40.395Z,9.40
2019-05-25T01:52:13.501Z,9.40
2019-05-25T01:54:59.570Z,9.40
2019-05-25T01:57:24.604Z,9.30
2019-05-25T01:59:56.904Z,9.30
2019-05-25T02:02:28.866Z,9.30
2019-05-25T02:05:01.479Z,9.30
2019-05-25T02:07:32.998Z,9.30
2019-05-25T02:10:03.663Z,9.30
2019-05-25T02:12:33.965Z,9.30
2019-05-25T02:15:06.499Z,9.40
2019-05-25T02:17:39.400Z,9.40
2019-05-25T02:20:13.776Z,9.50
2019-05-25T02:22:45.291Z,9.50
2019-05-25T02:25:18.888Z,9.60
2019-05-25T02:27:52.490Z,9.60
2019-05-25T02:30:29.441Z,9.60
2019-05-25T02:33:03.305Z,9.60
2019-05-25T02:35:36.067Z,9.70
2019-05-25T02:38:08.929Z,9.70
2019-05-25T02:40:42.687Z,9.70
2019-05-25T02:43:13.102Z,9.70
2019-05-25T02:45:42.770Z,9.80
2019-05-25T02:48:14.016Z,9.80
2019-05-25T02:50:43.799Z,9.80
2019-05-25T02:53:14.068Z,9.80
2019-05-25T02:55:49.187Z,9.80
2019-05-25T02:58:23.683Z,9.80
2019-05-25T03:00:59.524Z,9.90
2019-05-25T03:03:33.602Z,9.90
2019-05-25T03:06:07.672Z,9.90
2019-05-25T03:08:44.435Z,9.90
2019-05-25T03:11:17.423Z,9.90
2019-05-25T03:13:50.911Z,9.90
2019-05-25T03:16:25.182Z,9.90
2019-05-25T03:18:55.879Z,9.90
2019-05-25T03:21:29.567Z,9.90
2019-05-25T03:24:07.432Z,10.00
2019-05-25T03:26:41.410Z,10.00
2019-05-25T03:29:12.007Z,10.10
2019-05-25T03:31:42.632Z,10.30
2019-05-25T03:34:12.899Z,10.30
2019-05-25T03:36:45.696Z,10.40
2019-05-25T03:39:21.344Z,10.40
2019-05-25T03:41:54.806Z,10.40
2019-05-25T03:44:28.382Z,10.50
2019-05-25T03:47:01.567Z,10.40
2019-05-25T03:49:35.248Z,10.50
2019-05-25T03:52:07.591Z,10.50
2019-05-25T03:54:37.824Z,10.50
2019-05-25T03:57:08.011Z,10.40
2019-05-25T03:59:38.295Z,10.50
2019-05-25T04:02:08.658Z,10.50
2019-05-25T04:04:38.962Z,10.50
2019-05-25T04:07:16.171Z,10.60
2019-05-25T04:09:47.756Z,10.60
2019-05-25T04:12:20.671Z,10.70
2019-05-25T04:14:50.738Z,10.80
2019-05-25T04:17:24.622Z,10.80
2019-05-25T04:19:57.378Z,10.90
2019-05-25T04:22:30.743Z,10.90
2019-05-25T04:25:04.464Z,11.10
2019-05-25T04:27:39.371Z,11.40
2019-05-25T04:30:14.719Z,11.70
2019-05-25T04:32:45.457Z,11.90
2019-05-25T04:35:19.839Z,12.00
2019-05-25T04:37:52.991Z,12.10
2019-05-25T04:40:28.895Z,12.10
2019-05-25T04:42:59.627Z,12.10
2019-05-25T04:45:34.317Z,12.00
2019-05-25T04:48:08.286Z,12.00
2019-05-25T04:50:42.951Z,11.90
2019-05-25T04:53:18.503Z,11.80
2019-05-25T04:55:55.459Z,11.80
2019-05-25T04:58:30.384Z,11.80
2019-05-25T05:01:03.685Z,11.90
2019-05-25T05:03:38.112Z,12.00
2019-05-25T05:06:13.312Z,12.10
2019-05-25T05:08:50.713Z,12.20
2019-05-25T05:11:20.758Z,12.10
2019-05-25T05:13:53.625Z,11.90
2019-05-25T05:16:26.719Z,11.80
2019-05-25T05:19:06.079Z,11.80
2019-05-25T05:21:40.772Z,11.70
2019-05-25T05:24:10.798Z,11.60
2019-05-25T05:26:54.545Z,11.60
2019-05-25T05:29:18.151Z,11.40
2019-05-25T05:31:51.239Z,11.40
2019-05-25T05:34:27.105Z,11.30
2019-05-25T05:37:02.570Z,11.30
2019-05-25T05:39:35.115Z,11.30
2019-05-25T05:42:10.337Z,11.50
2019-05-25T05:44:45.219Z,11.70
2019-05-25T05:47:22.126Z,11.90
2019-05-25T05:49:58.502Z,12.10
2019-05-25T05:52:34.534Z,12.20
2019-05-25T05:55:07.467Z,12.10
2019-05-25T05:57:38.995Z,11.90
2019-05-25T06:00:14.238Z,11.90
2019-05-25T06:02:48.255Z,11.90
2019-05-25T06:05:24.136Z,12.00
2019-05-25T06:08:00.195Z,12.00
2019-05-25T06:10:33.923Z,11.80
2019-05-25T06:13:07.204Z,11.60
2019-05-25T06:15:42.119Z,11.50
2019-05-25T06:18:16.742Z,11.40
2019-05-25T06:20:52.195Z,11.40
2019-05-25T06:23:29.547Z,11.40
2019-05-25T06:26:01.780Z,11.50
2019-05-25T06:28:34.597Z,11.50
2019-05-25T06:31:08.991Z,11.50
2019-05-25T06:33:43.370Z,11.70
2019-05-25T06:36:18.658Z,11.70
2019-05-25T06:38:49.567Z,11.80
2019-05-25T06:41:24.134Z,11.90
2019-05-25T06:43:57.343Z,11.90
2019-05-25T06:46:31.233Z,12.00
2019-05-25T06:49:06.690Z,12.00
2019-05-25T06:51:39.919Z,12.00
2019-05-25T06:54:14.207Z,12.30
2019-05-25T06:56:45.498Z,12.40
2019-05-25T06:59:18.376Z,12.30
2019-05-25T07:01:52.258Z,12.20
2019-05-25T07:04:25.024Z,12.00
2019-05-25T07:06:57.383Z,11.80
2019-05-25T07:09:31.904Z,11.60
2019-05-25T07:12:03.388Z,11.40
2019-05-25T07:14:36.492Z,11.40
2019-05-25T07:17:08.963Z,11.30
2019-05-25T07:19:43.871Z,11.20
2019-05-25T07:22:18.627Z,11.20
2019-05-25T07:24:49.094Z,11.10
2019-05-25T07:27:20.132Z,11.20
2019-05-25T07:29:53.799Z,11.20
2019-05-25T07:32:26.781Z,11.20
2019-05-25T07:35:01.676Z,11.20
2019-05-25T07:37:34.439Z,11.30
2019-05-25T07:40:04.156Z,11.40
2019-05-25T07:42:37.838Z,11.60
2019-05-25T07:45:11.103Z,11.80
2019-05-25T07:47:45.261Z,12.00
2019-05-25T07:50:17.675Z,12.10
2019-05-25T07:52:52.488Z,11.90
2019-05-25T07:55:24.927Z,11.80
2019-05-25T07:58:15.598Z,11.50
2019-05-25T08:00:37.316Z,11.40
2019-05-25T08:03:11.137Z,11.40
2019-05-25T08:05:44.994Z,11.40
2019-05-25T08:08:19.746Z,11.50
2019-05-25T08:10:54.723Z,11.60
2019-05-25T08:13:31.360Z,11.80
2019-05-25T08:16:05.127Z,11.80
2019-05-25T08:18:39.775Z,11.60
2019-05-25T08:21:13.384Z,11.50
2019-05-25T08:23:46.532Z,11.40
2019-05-25T08:26:19.335Z,11.30
2019-05-25T08:28:55.438Z,11.30
2019-05-25T08:31:28.431Z,11.30
2019-05-25T08:34:00.039Z,11.40
2019-05-25T08:36:33.700Z,11.50
2019-05-25T08:39:06.959Z,11.60
2019-05-25T08:41:45.299Z,11.70
2019-05-25T08:44:17.703Z,11.60
2019-05-25T08:46:50.466Z,11.60
2019-05-25T08:49:27.108Z,11.50
2019-05-25T08:52:03.648Z,11.40
2019-05-25T08:54:38.021Z,11.30
2019-05-25T08:57:16.193Z,11.30
2019-05-25T08:59:44.415Z,11.20
2019-05-25T09:02:16.739Z,11.20
2019-05-25T09:04:47.662Z,11.20
2019-05-25T09:07:17.366Z,11.30
2019-05-25T09:09:52.483Z,11.40
2019-05-25T09:12:26.430Z,11.50
2019-05-25T09:14:58.859Z,11.40
2019-05-25T09:17:34.430Z,11.60
2019-05-25T09:20:06.623Z,11.70
2019-05-25T09:22:39.911Z,11.80
2019-05-25T09:25:11.405Z,11.90
2019-05-25T09:27:43.552Z,12.00
2019-05-25T09:30:16.488Z,12.20
2019-05-25T09:32:49.220Z,12.20
2019-05-25T09:35:21.960Z,12.30
2019-05-25T09:37:55.583Z,12.40
2019-05-25T09:40:28.769Z,12.40
2019-05-25T09:43:02.495Z,12.50
2019-05-25T09:45:36.415Z,12.40
2019-05-25T09:48:07.111Z,12.30
2019-05-25T09:50:38.267Z,12.30
2019-05-25T09:53:12.104Z,12.50
2019-05-25T09:55:45.123Z,12.60
2019-05-25T09:58:15.619Z,12.70
2019-05-25T10:00:48.419Z,12.90
2019-05-25T10:03:21.289Z,13.10
2019-05-25T10:05:55.227Z,13.30
2019-05-25T10:08:26.311Z,13.40
2019-05-25T10:10:59.135Z,13.40
2019-05-25T10:13:35.515Z,13.50
2019-05-25T10:16:09.276Z,13.50
2019-05-25T10:18:43.225Z,13.50
2019-05-25T10:21:17.799Z,13.70
2019-05-25T10:23:51.528Z,13.80
2019-05-25T10:26:23.488Z,13.40
2019-05-25T10:28:53.606Z,13.00
2019-05-25T10:31:24.703Z,12.80
2019-05-25T10:33:59.329Z,12.70
2019-05-25T10:36:30.526Z,12.60
2019-05-25T10:39:03.040Z,12.70
2019-05-25T10:41:33.631Z,12.70
2019-05-25T10:44:04.682Z,12.80
2019-05-25T10:46:39.220Z,13.10
2019-05-25T10:49:11.961Z,13.70
2019-05-25T10:51:47.015Z,14.10
2019-05-25T10:54:22.167Z,14.10
2019-05-25T10:56:54.853Z,14.00
2019-05-25T10:59:27.615Z,13.60
2019-05-25T11:01:59.921Z,13.30
2019-05-25T11:04:33.298Z,13.10
2019-05-25T11:07:07.658Z,13.00
2019-05-25T11:09:40.424Z,13.10
2019-05-25T11:12:11.243Z,13.20
2019-05-25T11:14:42.158Z,13.30
2019-05-25T11:17:12.088Z,13.40
2019-05-25T11:19:44.896Z,13.50
2019-05-25T11:22:18.188Z,13.80
2019-05-25T11:24:50.166Z,14.30
2019-05-25T11:27:24.798Z,14.60
2019-05-25T11:30:08.467Z,14.80
2019-05-25T11:32:32.415Z,14.50
2019-05-25T11:35:06.806Z,14.30
2019-05-25T11:37:40.717Z,14.10
2019-05-25T11:40:15.873Z,14.20
2019-05-25T11:42:49.631Z,14.10
2019-05-25T11:45:23.086Z,14.60
2019-05-25T11:47:57.986Z,14.90
2019-05-25T11:50:28.999Z,15.10
2019-05-25T11:52:58.341Z,14.90
2019-05-25T11:55:28.299Z,14.80
2019-05-25T11:58:00.034Z,14.50
2019-05-25T12:00:31.995Z,14.40
2019-05-25T12:03:03.819Z,14.10
2019-05-25T12:05:38.351Z,14.00
2019-05-25T12:08:12.097Z,14.00
2019-05-25T12:10:49.229Z,14.10
2019-05-25T12:13:23.723Z,14.00
2019-05-25T12:15:56.515Z,14.00
2019-05-25T12:18:31.494Z,13.90
2019-05-25T12:21:05.287Z,14.00
2019-05-25T12:23:38.847Z,14.00
2019-05-25T12:26:11.551Z,13.90
2019-05-25T12:28:45.089Z,14.00
2019-05-25T12:31:18.688Z,14.10
2019-05-25T12:33:52.609Z,14.10
2019-05-25T12:36:26.472Z,14.40
2019-05-25T12:38:59.647Z,14.40
2019-05-25T12:41:36.201Z,14.40
2019-05-25T12:44:10.375Z,14.60
2019-05-25T12:46:45.571Z,14.80
2019-05-25T12:49:18.783Z,14.90
2019-05-25T12:51:53.513Z,15.10
2019-05-25T12:54:26.808Z,15.20
2019-05-25T12:57:02.829Z,15.20
2019-05-25T12:59:36.804Z,15.00
2019-05-25T13:02:13.568Z,15.10
2019-05-25T13:04:45.825Z,15.10
2019-05-25T13:07:17.628Z,15.20
2019-05-25T13:09:52.193Z,15.10
2019-05-25T13:12:27.371Z,14.80
2019-05-25T13:14:59.551Z,14.70
2019-05-25T13:17:35.055Z,14.60
2019-05-25T13:20:06.822Z,14.60
2019-05-25T13:22:37.965Z,14.40
2019-05-25T13:25:12.402Z,14.40
2019-05-25T13:27:46.055Z,14.40
2019-05-25T13:30:20.833Z,14.50
2019-05-25T13:32:55.018Z,14.70
2019-05-25T13:35:24.926Z,14.70
2019-05-25T13:37:59.299Z,14.90
2019-05-25T13:40:32.511Z,14.90
2019-05-25T13:43:07.306Z,15.00
2019-05-25T13:45:38.156Z,14.90
2019-05-25T13:48:13.570Z,14.90
2019-05-25T13:50:46.993Z,15.00
2019-05-25T13:53:17.926Z,15.20
2019-05-25T13:55:48.823Z,15.20
2019-05-25T13:58:22.712Z,15.10
2019-05-25T14:00:57.571Z,15.10
2019-05-25T14:03:31.361Z,15.10
2019-05-25T14:06:04.823Z,15.10
2019-05-25T14:08:39.553Z,15.10
2019-05-25T14:11:11.068Z,15.00
2019-05-25T14:13:41.741Z,15.10
2019-05-25T14:16:12.924Z,15.10
2019-05-25T14:18:42.962Z,15.10
2019-05-25T14:21:13.250Z,15.20
2019-05-25T14:23:48.969Z,15.30
2019-05-25T14:26:21.760Z,15.30
2019-05-25T14:28:55.403Z,15.30
2019-05-25T14:31:44.362Z,15.40
2019-05-25T14:34:05.543Z,15.50
2019-05-25T14:36:41.195Z,15.50
2019-05-25T14:39:14.965Z,15.50
2019-05-25T14:41:49.728Z,15.50
2019-05-25T14:44:25.912Z,15.50
2019-05-25T14:47:00.386Z,15.40
2019-05-25T14:49:34.919Z,15.40
2019-05-25T14:52:08.462Z,15.50
2019-05-25T14:54:44.062Z,15.60
2019-05-25T14:57:18.853Z,15.70
2019-05-25T14:59:51.592Z,15.80
2019-05-25T15:02:24.385Z,16.00
2019-05-25T15:04:58.559Z,16.20
2019-05-25T15:07:32.819Z,16.10
2019-05-25T15:10:07.624Z,16.10
2019-05-25T15:12:42.240Z,16.30
2019-05-25T15:15:15.473Z,16.40
2019-05-25T15:17:51.263Z,16.50
2019-05-25T15:20:26.960Z,16.40
2019-05-25T15:22:59.164Z,16.50
2019-05-25T15:25:34.275Z,16.70
2019-05-25T15:28:06.706Z,16.70
2019-05-25T15:30:36.499Z,16.80
2019-05-25T15:33:08.528Z,16.80
2019-05-25T15:35:43.595Z,16.80
2019-05-25T15:38:18.768Z,16.90
2019-05-25T15:40:50.927Z,16.80
2019-05-25T15:43:20.862Z,16.80
2019-05-25T15:45:50.878Z,16.90
2019-05-25T15:48:26.364Z,17.10
2019-05-25T15:51:01.159Z,17.30
2019-05-25T15:53:34.339Z,17.40
2019-05-25T15:56:08.735Z,17.40
2019-05-25T15:58:43.363Z,17.40
2019-05-25T16:01:17.163Z,17.60
2019-05-25T16:03:49.408Z,17.90
2019-05-25T16:06:23.731Z,18.90
2019-05-25T16:08:55.365Z,20.10
2019-05-25T16:11:32.958Z,21.20
2019-05-25T16:14:07.433Z,22.00
2019-05-25T16:16:35.508Z,22.10
2019-05-25T16:19:10.183Z,22.10
2019-05-25T16:21:39.526Z,21.80
2019-05-25T16:24:10.115Z,21.50
2019-05-25T16:26:46.707Z,20.80
2019-05-25T16:29:17.373Z,20.60
2019-05-25T16:31:48.084Z,20.50
2019-05-25T16:34:18.515Z,20.20
2019-05-25T16:36:48.357Z,19.70
2019-05-25T16:39:22.527Z,19.40
2019-05-25T16:41:56.610Z,19.20
2019-05-25T16:44:30.270Z,18.80
2019-05-25T16:47:03.999Z,18.80
2019-05-25T16:49:38.111Z,19.90
2019-05-25T16:52:10.275Z,21.20
2019-05-25T16:54:44.167Z,21.00
2019-05-25T16:57:16.863Z,20.50
2019-05-25T16:59:48.575Z,19.80
2019-05-25T17:02:21.855Z,19.50
2019-05-25T17:04:55.983Z,19.20
2019-05-25T17:07:28.273Z,18.80
2019-05-25T17:10:03.951Z,18.20
2019-05-25T17:12:37.634Z,17.90
2019-05-25T17:15:11.199Z,17.40
2019-05-25T17:17:45.347Z,17.00
2019-05-25T17:20:20.384Z,16.70
2019-05-25T17:22:54.633Z,16.60
2019-05-25T17:25:24.747Z,16.50
2019-05-25T17:27:55.766Z,16.50
2019-05-25T17:30:45.305Z,16.50
2019-05-25T17:33:17.012Z,16.30
2019-05-25T17:35:47.759Z,16.20
2019-05-25T17:38:21.442Z,16.20
2019-05-25T17:40:55.970Z,16.00
2019-05-25T17:43:29.246Z,16.00
2019-05-25T17:46:04.555Z,15.80
2019-05-25T17:48:37.935Z,15.70
2019-05-25T17:51:12.200Z,15.70
2019-05-25T17:53:42.517Z,15.60
2019-05-25T17:56:15.050Z,15.60
2019-05-25T17:58:49.087Z,15.50
2019-05-25T18:01:23.353Z,15.50
2019-05-25T18:04:06.460Z,15.40
2019-05-25T18:06:31.711Z,15.40
2019-05-25T18:09:04.271Z,15.40
2019-05-25T18:11:35.361Z,15.40
2019-05-25T18:14:09.984Z,15.40
2019-05-25T18:16:43.842Z,15.40
2019-05-25T18:19:14.678Z,15.50
2019-05-25T18:21:44.433Z,15.50
2019-05-25T18:24:19.072Z,15.50
2019-05-25T18:26:53.159Z,15.40
2019-05-25T18:29:26.308Z,15.40
2019-05-25T18:31:58.625Z,15.30
2019-05-25T18:34:32.848Z,15.30
2019-05-25T18:37:03.754Z,15.30
2019-05-25T18:39:37.279Z,15.20
2019-05-25T18:42:11.147Z,15.10
2019-05-25T18:44:45.063Z,15.00
2019-05-25T18:47:18.858Z,14.90
2019-05-25T18:49:52.927Z,14.90
2019-05-25T18:52:27.143Z,14.80
2019-05-25T18:55:02.197Z,14.80
2019-05-25T18:57:37.867Z,14.80
2019-05-25T19:00:12.960Z,14.70
2019-05-25T19:02:46.085Z,14.70
2019-05-25T19:05:20.648Z,14.60
2019-05-25T19:07:52.927Z,14.50
2019-05-25T19:10:26.815Z,14.40
2019-05-25T19:12:59.911Z,14.30
2019-05-25T19:15:32.247Z,14.10
2019-05-25T19:18:02.031Z,14.00
2019-05-25T19:20:36.838Z,14.00
2019-05-25T19:23:11.871Z,13.90
2019-05-25T19:25:52.197Z,13.80
2019-05-25T19:28:29.850Z,13.70
2019-05-25T19:31:04.736Z,13.60
2019-05-25T19:33:38.851Z,13.60
2019-05-25T19:36:18.572Z,13.50
2019-05-25T19:38:52.995Z,13.50
2019-05-25T19:41:26.731Z,13.40
2019-05-25T19:44:06.087Z,13.30
2019-05-25T19:46:39.463Z,13.20
2019-05-25T19:49:10.432Z,13.10
2019-05-25T19:51:41.691Z,13.00
2019-05-25T19:54:18.338Z,12.90
2019-05-25T19:56:50.088Z,12.90
2019-05-25T19:59:24.771Z,12.80
2019-05-25T20:02:01.004Z,12.80
2019-05-25T20:04:34.943Z,12.80
2019-05-25T20:07:08.099Z,12.80
2019-05-25T20:09:41.365Z,12.80
2019-05-25T20:12:15.011Z,12.70
2019-05-25T20:14:48.615Z,12.70
2019-05-25T20:17:19.704Z,12.80
2019-05-25T20:19:50.823Z,12.70
2019-05-25T20:22:25.088Z,12.70
2019-05-25T20:25:01.774Z,12.70
2019-05-25T20:27:37.088Z,12.70
2019-05-25T20:30:10.253Z,12.60
2019-05-25T20:32:44.044Z,12.60
2019-05-25T20:35:31.773Z,12.60
2019-05-25T20:37:52.738Z,12.50
2019-05-25T20:40:26.495Z,12.50
2019-05-25T20:42:59.011Z,12.40
2019-05-25T20:45:31.719Z,12.30
2019-05-25T20:48:05.484Z,12.00
2019-05-25T20:50:39.337Z,11.90
2019-05-25T20:53:14.111Z,11.90
2019-05-25T20:55:50.375Z,11.80
2019-05-25T20:58:23.659Z,11.90
2019-05-25T21:00:56.724Z,11.90
2019-05-25T21:03:28.934Z,11.80
2019-05-25T21:06:00.102Z,11.90
2019-05-25T21:08:30.088Z,11.80
2019-05-25T21:11:00.915Z,11.80
2019-05-25T21:13:31.651Z,11.70
2019-05-25T21:16:04.492Z,11.70
2019-05-25T21:18:37.279Z,11.70
2019-05-25T21:21:10.374Z,11.70
2019-05-25T21:23:44.324Z,11.70
2019-05-25T21:26:17.251Z,11.70
2019-05-25T21:28:52.044Z,11.70
2019-05-25T21:31:25.741Z,11.70
2019-05-25T21:33:59.883Z,11.80
2019-05-25T21:36:34.692Z,11.80
2019-05-25T21:39:10.920Z,11.80
2019-05-25T21:41:40.991Z,11.80
2019-05-25T21:44:10.696Z,11.80
2019-05-25T21:46:44.575Z,11.80
2019-05-25T21:49:16.959Z,11.80
2019-05-25T21:51:50.719Z,11.80
2019-05-25T21:54:25.495Z,11.80
2019-05-25T21:56:56.679Z,11.80
2019-05-25T21:59:26.956Z,11.80
2019-05-25T22:01:58.439Z,11.70
2019-05-25T22:04:31.654Z,11.70
2019-05-25T22:07:05.471Z,11.80
2019-05-25T22:09:38.192Z,11.80
2019-05-25T22:12:08.054Z,11.70
2019-05-25T22:14:40.408Z,11.70
2019-05-25T22:17:14.776Z,11.70
2019-05-25T22:19:49.507Z,11.70
2019-05-25T22:22:22.312Z,11.70
2019-05-25T22:24:55.363Z,11.70
2019-05-25T22:27:27.531Z,11.70
2019-05-25T22:30:01.635Z,11.70
2019-05-25T22:32:36.875Z,11.70
2019-05-25T22:35:10.661Z,11.70
2019-05-25T22:37:41.955Z,11.70
2019-05-25T22:40:11.858Z,11.70
2019-05-25T22:42:43.704Z,11.70
2019-05-25T22:45:19.618Z,11.70
2019-05-25T22:47:53.375Z,11.70
2019-05-25T22:50:24.897Z,11.70
2019-05-25T22:52:54.723Z,11.70
2019-05-25T22:55:25.851Z,11.70
2019-05-25T22:57:56.404Z,11.70
2019-05-25T23:00:27.304Z,11.70
2019-05-25T23:03:00.527Z,11.70
2019-05-25T23:05:35.103Z,11.70
2019-05-25T23:08:06.847Z,11.70
2019-05-25T23:10:40.671Z,11.70
2019-05-25T23:13:11.743Z,11.60
2019-05-25T23:15:42.034Z,11.70
2019-05-25T23:18:19.065Z,11.70
2019-05-25T23:20:51.911Z,11.70
2019-05-25T23:23:24.679Z,11.70
2019-05-25T23:25:55.298Z,11.70
2019-05-25T23:28:28.294Z,11.80
2019-05-25T23:31:00.939Z,11.70
2019-05-25T23:33:31.838Z,11.80
2019-05-25T23:36:02.472Z,11.80
2019-05-25T23:38:35.075Z,11.80
2019-05-25T23:41:09.522Z,11.70
2019-05-25T23:43:41.505Z,11.70
2019-05-25T23:46:14.563Z,11.70
2019-05-25T23:48:50.059Z,11.70
2019-05-25T23:51:20.823Z,11.70
2019-05-25T23:53:50.901Z,11.70
2019-05-25T23:56:22.718Z,11.70
2019-05-25T23:58:54.943Z,11.70
